sensor_id;sensor_type;location;lat;lon;timestamp;P1;durP1;ratioP1;P2;durP2;ratioP2
52956;SDS011;38819;42.692;23.342;2023-08-06T00:00:37;6.50;;;2.75;;
52956;SDS011;38819;42.692;23.342;2023-08-06T00:03:03;3.60;;;2.40;;
52956;SDS011;38819;42.692;23.342;2023-08-06T00:05:28;2.00;;;1.90;;
52956;SDS011;38819;42.692;23.342;2023-08-06T00:07:54;3.45;;;2.30;;
52956;SDS011;38819;42.692;23.342;2023-08-06T00:10:19;4.57;;;2.88;;
52956;SDS011;38819;42.692;23.342;2023-08-06T00:12:45;6.93;;;3.20;;
52956;SDS011;38819;42.692;23.342;2023-08-06T00:15:11;5.35;;;2.92;;
52956;SDS011;38819;42.692;23.342;2023-08-06T00:17:37;3.65;;;2.25;;
52956;SDS011;38819;42.692;23.342;2023-08-06T00:20:03;3.60;;;2.60;;
52956;SDS011;38819;42.692;23.342;2023-08-06T00:22:37;4.28;;;2.72;;
52956;SDS011;38819;42.692;23.342;2023-08-06T00:25:03;4.18;;;2.70;;
52956;SDS011;38819;42.692;23.342;2023-08-06T00:27:30;4.80;;;2.42;;
52956;SDS011;38819;42.692;23.342;2023-08-06T00:29:56;3.47;;;2.38;;
52956;SDS011;38819;42.692;23.342;2023-08-06T00:32:21;3.58;;;2.70;;
52956;SDS011;38819;42.692;23.342;2023-08-06T00:34:47;3.08;;;2.65;;
52956;SDS011;38819;42.692;23.342;2023-08-06T00:37:14;2.80;;;2.47;;
52956;SDS011;38819;42.692;23.342;2023-08-06T00:39:43;3.90;;;2.60;;
52956;SDS011;38819;42.692;23.342;2023-08-06T00:42:09;5.95;;;3.40;;
52956;SDS011;38819;42.692;23.342;2023-08-06T00:44:35;4.82;;;4.10;;
52956;SDS011;38819;42.692;23.342;2023-08-06T00:47:01;6.72;;;4.50;;
52956;SDS011;38819;42.692;23.342;2023-08-06T00:49:27;8.63;;;4.78;;
52956;SDS011;38819;42.692;23.342;2023-08-06T00:51:53;6.80;;;6.10;;
52956;SDS011;38819;42.692;23.342;2023-08-06T00:54:18;6.90;;;5.38;;
52956;SDS011;38819;42.692;23.342;2023-08-06T00:56:44;6.90;;;5.50;;
52956;SDS011;38819;42.692;23.342;2023-08-06T01:01:37;5.32;;;3.30;;
52956;SDS011;38819;42.692;23.342;2023-08-06T01:04:02;4.20;;;3.75;;
52956;SDS011;38819;42.692;23.342;2023-08-06T01:06:46;5.50;;;4.03;;
52956;SDS011;38819;42.692;23.342;2023-08-06T01:09:31;4.32;;;3.53;;
52956;SDS011;38819;42.692;23.342;2023-08-06T01:14:29;7.00;;;3.58;;
52956;SDS011;38819;42.692;23.342;2023-08-06T01:16:58;6.97;;;3.80;;
52956;SDS011;38819;42.692;23.342;2023-08-06T01:19:24;5.60;;;4.35;;
52956;SDS011;38819;42.692;23.342;2023-08-06T01:21:50;5.18;;;4.03;;
52956;SDS011;38819;42.692;23.342;2023-08-06T01:24:15;10.30;;;4.30;;
52956;SDS011;38819;42.692;23.342;2023-08-06T01:31:38;5.38;;;2.88;;
52956;SDS011;38819;42.692;23.342;2023-08-06T01:34:17;4.85;;;3.05;;
52956;SDS011;38819;42.692;23.342;2023-08-06T01:36:49;2.92;;;2.60;;
52956;SDS011;38819;42.692;23.342;2023-08-06T01:39:15;3.40;;;3.10;;
52956;SDS011;38819;42.692;23.342;2023-08-06T01:41:41;5.00;;;3.10;;
52956;SDS011;38819;42.692;23.342;2023-08-06T01:44:06;5.43;;;2.95;;
52956;SDS011;38819;42.692;23.342;2023-08-06T01:46:32;4.25;;;2.70;;
52956;SDS011;38819;42.692;23.342;2023-08-06T01:48:57;4.45;;;3.10;;
52956;SDS011;38819;42.692;23.342;2023-08-06T01:51:22;12.20;;;3.30;;
52956;SDS011;38819;42.692;23.342;2023-08-06T01:53:48;4.40;;;3.47;;
52956;SDS011;38819;42.692;23.342;2023-08-06T01:56:13;7.60;;;3.10;;
52956;SDS011;38819;42.692;23.342;2023-08-06T01:58:39;5.68;;;3.28;;
52956;SDS011;38819;42.692;23.342;2023-08-06T02:01:04;4.50;;;3.00;;
52956;SDS011;38819;42.692;23.342;2023-08-06T02:03:29;3.42;;;3.03;;
52956;SDS011;38819;42.692;23.342;2023-08-06T02:05:55;3.80;;;3.28;;
52956;SDS011;38819;42.692;23.342;2023-08-06T02:08:20;4.28;;;3.13;;
52956;SDS011;38819;42.692;23.342;2023-08-06T02:10:46;4.80;;;3.05;;
52956;SDS011;38819;42.692;23.342;2023-08-06T02:13:11;5.43;;;2.80;;
52956;SDS011;38819;42.692;23.342;2023-08-06T02:15:43;3.25;;;2.95;;
52956;SDS011;38819;42.692;23.342;2023-08-06T02:18:09;4.43;;;3.13;;
52956;SDS011;38819;42.692;23.342;2023-08-06T02:20:35;7.30;;;3.42;;
52956;SDS011;38819;42.692;23.342;2023-08-06T02:23:01;6.10;;;3.22;;
52956;SDS011;38819;42.692;23.342;2023-08-06T02:25:26;4.43;;;3.17;;
52956;SDS011;38819;42.692;23.342;2023-08-06T02:27:51;3.65;;;2.58;;
52956;SDS011;38819;42.692;23.342;2023-08-06T02:30:17;3.28;;;2.55;;
52956;SDS011;38819;42.692;23.342;2023-08-06T02:32:42;3.28;;;2.80;;
52956;SDS011;38819;42.692;23.342;2023-08-06T02:35:08;7.30;;;3.45;;
52956;SDS011;38819;42.692;23.342;2023-08-06T02:37:34;9.68;;;3.70;;
52956;SDS011;38819;42.692;23.342;2023-08-06T02:39:59;6.05;;;3.85;;
52956;SDS011;38819;42.692;23.342;2023-08-06T02:42:25;7.72;;;4.20;;
52956;SDS011;38819;42.692;23.342;2023-08-06T02:44:51;8.00;;;3.75;;
52956;SDS011;38819;42.692;23.342;2023-08-06T02:47:20;5.05;;;3.28;;
52956;SDS011;38819;42.692;23.342;2023-08-06T02:49:45;5.53;;;3.13;;
52956;SDS011;38819;42.692;23.342;2023-08-06T02:52:11;5.45;;;3.00;;
52956;SDS011;38819;42.692;23.342;2023-08-06T02:54:36;5.25;;;3.38;;
52956;SDS011;38819;42.692;23.342;2023-08-06T02:57:01;7.32;;;3.45;;
52956;SDS011;38819;42.692;23.342;2023-08-06T02:59:27;3.58;;;2.90;;
52956;SDS011;38819;42.692;23.342;2023-08-06T03:01:52;5.10;;;2.83;;
52956;SDS011;38819;42.692;23.342;2023-08-06T03:04:18;4.28;;;3.08;;
52956;SDS011;38819;42.692;23.342;2023-08-06T03:06:43;4.70;;;3.60;;
52956;SDS011;38819;42.692;23.342;2023-08-06T03:09:09;7.22;;;3.83;;
52956;SDS011;38819;42.692;23.342;2023-08-06T03:11:34;7.53;;;3.35;;
52956;SDS011;38819;42.692;23.342;2023-08-06T03:13:59;3.92;;;3.40;;
52956;SDS011;38819;42.692;23.342;2023-08-06T03:16:25;7.85;;;3.63;;
52956;SDS011;38819;42.692;23.342;2023-08-06T03:18:50;7.65;;;3.92;;
52956;SDS011;38819;42.692;23.342;2023-08-06T03:21:16;4.95;;;3.30;;
52956;SDS011;38819;42.692;23.342;2023-08-06T03:23:41;6.07;;;3.70;;
52956;SDS011;38819;42.692;23.342;2023-08-06T03:26:07;6.30;;;3.70;;
52956;SDS011;38819;42.692;23.342;2023-08-06T03:28:32;5.25;;;3.75;;
52956;SDS011;38819;42.692;23.342;2023-08-06T03:31:01;5.93;;;4.20;;
52956;SDS011;38819;42.692;23.342;2023-08-06T03:33:28;6.43;;;4.40;;
52956;SDS011;38819;42.692;23.342;2023-08-06T03:35:53;4.72;;;3.50;;
52956;SDS011;38819;42.692;23.342;2023-08-06T03:38:19;4.32;;;3.92;;
52956;SDS011;38819;42.692;23.342;2023-08-06T03:40:45;7.25;;;4.60;;
52956;SDS011;38819;42.692;23.342;2023-08-06T03:43:11;5.70;;;3.92;;
52956;SDS011;38819;42.692;23.342;2023-08-06T03:45:36;4.68;;;3.47;;
52956;SDS011;38819;42.692;23.342;2023-08-06T03:48:02;5.93;;;3.80;;
52956;SDS011;38819;42.692;23.342;2023-08-06T03:50:27;4.43;;;3.42;;
52956;SDS011;38819;42.692;23.342;2023-08-06T03:52:52;4.25;;;3.65;;
52956;SDS011;38819;42.692;23.342;2023-08-06T03:55:18;4.88;;;2.95;;
52956;SDS011;38819;42.692;23.342;2023-08-06T03:57:43;5.43;;;3.40;;
52956;SDS011;38819;42.692;23.342;2023-08-06T04:00:09;5.53;;;3.78;;
52956;SDS011;38819;42.692;23.342;2023-08-06T04:02:34;3.83;;;3.00;;
52956;SDS011;38819;42.692;23.342;2023-08-06T04:05:00;5.30;;;3.50;;
52956;SDS011;38819;42.692;23.342;2023-08-06T04:07:26;3.40;;;2.95;;
52956;SDS011;38819;42.692;23.342;2023-08-06T04:09:56;4.82;;;3.22;;
52956;SDS011;38819;42.692;23.342;2023-08-06T04:12:23;5.72;;;3.72;;
52956;SDS011;38819;42.692;23.342;2023-08-06T04:14:49;6.10;;;3.53;;
52956;SDS011;38819;42.692;23.342;2023-08-06T04:19:41;4.30;;;3.85;;
52956;SDS011;38819;42.692;23.342;2023-08-06T04:22:06;3.90;;;3.60;;
52956;SDS011;38819;42.692;23.342;2023-08-06T04:24:32;9.02;;;3.47;;
52956;SDS011;38819;42.692;23.342;2023-08-06T04:26:57;7.15;;;2.90;;
52956;SDS011;38819;42.692;23.342;2023-08-06T04:29:23;2.80;;;2.60;;
52956;SDS011;38819;42.692;23.342;2023-08-06T04:31:48;5.80;;;3.35;;
52956;SDS011;38819;42.692;23.342;2023-08-06T04:34:13;4.80;;;3.40;;
52956;SDS011;38819;42.692;23.342;2023-08-06T04:36:39;3.65;;;3.25;;
52956;SDS011;38819;42.692;23.342;2023-08-06T04:39:04;3.33;;;3.03;;
52956;SDS011;38819;42.692;23.342;2023-08-06T04:41:30;5.47;;;3.40;;
52956;SDS011;38819;42.692;23.342;2023-08-06T04:43:56;4.90;;;3.28;;
52956;SDS011;38819;42.692;23.342;2023-08-06T04:46:22;5.70;;;3.17;;
52956;SDS011;38819;42.692;23.342;2023-08-06T04:48:47;5.63;;;2.85;;
52956;SDS011;38819;42.692;23.342;2023-08-06T04:51:12;3.90;;;2.92;;
52956;SDS011;38819;42.692;23.342;2023-08-06T04:53:38;4.00;;;3.10;;
52956;SDS011;38819;42.692;23.342;2023-08-06T04:56:04;3.72;;;3.35;;
52956;SDS011;38819;42.692;23.342;2023-08-06T04:58:29;3.40;;;3.10;;
52956;SDS011;38819;42.692;23.342;2023-08-06T05:00:54;4.18;;;3.78;;
52956;SDS011;38819;42.692;23.342;2023-08-06T05:03:20;4.10;;;3.58;;
52956;SDS011;38819;42.692;23.342;2023-08-06T05:05:46;3.75;;;3.42;;
52956;SDS011;38819;42.692;23.342;2023-08-06T05:08:14;6.10;;;3.92;;
52956;SDS011;38819;42.692;23.342;2023-08-06T05:10:44;3.50;;;3.00;;
52956;SDS011;38819;42.692;23.342;2023-08-06T05:13:10;2.90;;;2.67;;
52956;SDS011;38819;42.692;23.342;2023-08-06T05:15:36;2.75;;;2.55;;
52956;SDS011;38819;42.692;23.342;2023-08-06T05:18:01;5.03;;;2.72;;
52956;SDS011;38819;42.692;23.342;2023-08-06T05:20:26;3.97;;;2.47;;
52956;SDS011;38819;42.692;23.342;2023-08-06T05:22:52;3.40;;;3.05;;
52956;SDS011;38819;42.692;23.342;2023-08-06T05:25:17;4.32;;;3.03;;
52956;SDS011;38819;42.692;23.342;2023-08-06T05:27:42;5.32;;;3.47;;
52956;SDS011;38819;42.692;23.342;2023-08-06T05:30:08;4.30;;;3.78;;
52956;SDS011;38819;42.692;23.342;2023-08-06T05:32:35;6.53;;;4.35;;
52956;SDS011;38819;42.692;23.342;2023-08-06T05:35:00;4.93;;;4.43;;
52956;SDS011;38819;42.692;23.342;2023-08-06T05:37:26;6.53;;;5.53;;
52956;SDS011;38819;42.692;23.342;2023-08-06T05:39:51;6.45;;;4.80;;
52956;SDS011;38819;42.692;23.342;2023-08-06T05:42:17;7.18;;;5.78;;
52956;SDS011;38819;42.692;23.342;2023-08-06T05:44:42;8.50;;;5.93;;
52956;SDS011;38819;42.692;23.342;2023-08-06T05:47:08;6.07;;;5.35;;
52956;SDS011;38819;42.692;23.342;2023-08-06T05:49:33;7.32;;;6.25;;
52956;SDS011;38819;42.692;23.342;2023-08-06T05:51:58;5.65;;;4.50;;
52956;SDS011;38819;42.692;23.342;2023-08-06T05:54:24;5.75;;;4.65;;
52956;SDS011;38819;42.692;23.342;2023-08-06T05:56:50;5.43;;;4.30;;
52956;SDS011;38819;42.692;23.342;2023-08-06T05:59:15;5.00;;;3.80;;
52956;SDS011;38819;42.692;23.342;2023-08-06T06:01:40;4.47;;;3.35;;
52956;SDS011;38819;42.692;23.342;2023-08-06T06:04:06;4.35;;;2.85;;
52956;SDS011;38819;42.692;23.342;2023-08-06T06:06:31;3.20;;;2.90;;
52956;SDS011;38819;42.692;23.342;2023-08-06T06:08:57;2.88;;;2.45;;
52956;SDS011;38819;42.692;23.342;2023-08-06T06:11:22;5.30;;;3.10;;
52956;SDS011;38819;42.692;23.342;2023-08-06T06:13:50;2.25;;;2.05;;
52956;SDS011;38819;42.692;23.342;2023-08-06T06:16:16;2.05;;;1.90;;
52956;SDS011;38819;42.692;23.342;2023-08-06T06:18:41;2.63;;;1.67;;
52956;SDS011;38819;42.692;23.342;2023-08-06T06:21:07;4.85;;;1.58;;
52956;SDS011;38819;42.692;23.342;2023-08-06T06:23:32;2.47;;;1.83;;
52956;SDS011;38819;42.692;23.342;2023-08-06T06:25:57;1.77;;;1.67;;
52956;SDS011;38819;42.692;23.342;2023-08-06T06:28:23;7.90;;;2.30;;
52956;SDS011;38819;42.692;23.342;2023-08-06T06:30:48;2.70;;;1.73;;
52956;SDS011;38819;42.692;23.342;2023-08-06T06:33:14;3.28;;;2.05;;
52956;SDS011;38819;42.692;23.342;2023-08-06T06:35:39;1.83;;;1.45;;
52956;SDS011;38819;42.692;23.342;2023-08-06T06:38:04;2.40;;;1.77;;
52956;SDS011;38819;42.692;23.342;2023-08-06T06:40:30;2.38;;;1.33;;
52956;SDS011;38819;42.692;23.342;2023-08-06T06:42:55;1.30;;;1.13;;
52956;SDS011;38819;42.692;23.342;2023-08-06T06:45:21;2.95;;;1.67;;
52956;SDS011;38819;42.692;23.342;2023-08-06T06:47:46;2.42;;;1.55;;
52956;SDS011;38819;42.692;23.342;2023-08-06T06:50:11;3.85;;;1.60;;
52956;SDS011;38819;42.692;23.342;2023-08-06T06:52:37;4.20;;;1.77;;
52956;SDS011;38819;42.692;23.342;2023-08-06T06:55:02;1.70;;;1.60;;
52956;SDS011;38819;42.692;23.342;2023-08-06T06:57:28;3.58;;;1.88;;
52956;SDS011;38819;42.692;23.342;2023-08-06T06:59:54;1.77;;;1.67;;
52956;SDS011;38819;42.692;23.342;2023-08-06T07:02:19;2.53;;;2.35;;
52956;SDS011;38819;42.692;23.342;2023-08-06T07:04:44;5.97;;;2.03;;
52956;SDS011;38819;42.692;23.342;2023-08-06T07:07:10;5.97;;;2.22;;
52956;SDS011;38819;42.692;23.342;2023-08-06T07:09:36;2.33;;;2.13;;
52956;SDS011;38819;42.692;23.342;2023-08-06T07:12:01;2.13;;;1.80;;
52956;SDS011;38819;42.692;23.342;2023-08-06T07:14:28;3.90;;;2.00;;
52956;SDS011;38819;42.692;23.342;2023-08-06T07:16:53;2.20;;;1.95;;
52956;SDS011;38819;42.692;23.342;2023-08-06T07:19:19;2.00;;;1.80;;
52956;SDS011;38819;42.692;23.342;2023-08-06T07:21:44;5.60;;;1.67;;
52956;SDS011;38819;42.692;23.342;2023-08-06T07:24:10;2.75;;;1.90;;
52956;SDS011;38819;42.692;23.342;2023-08-06T07:26:36;4.97;;;2.03;;
52956;SDS011;38819;42.692;23.342;2023-08-06T07:29:01;5.63;;;2.33;;
52956;SDS011;38819;42.692;23.342;2023-08-06T07:31:27;3.17;;;2.15;;
52956;SDS011;38819;42.692;23.342;2023-08-06T07:33:52;3.53;;;2.55;;
52956;SDS011;38819;42.692;23.342;2023-08-06T07:36:18;3.25;;;2.40;;
52956;SDS011;38819;42.692;23.342;2023-08-06T07:38:43;2.25;;;2.10;;
52956;SDS011;38819;42.692;23.342;2023-08-06T07:41:09;2.72;;;2.53;;
52956;SDS011;38819;42.692;23.342;2023-08-06T07:43:34;3.83;;;1.88;;
52956;SDS011;38819;42.692;23.342;2023-08-06T07:46:00;2.35;;;2.20;;
52956;SDS011;38819;42.692;23.342;2023-08-06T07:48:26;6.20;;;2.30;;
52956;SDS011;38819;42.692;23.342;2023-08-06T07:50:53;5.38;;;2.03;;
52956;SDS011;38819;42.692;23.342;2023-08-06T07:53:19;2.75;;;1.90;;
52956;SDS011;38819;42.692;23.342;2023-08-06T07:55:53;5.47;;;2.25;;
52956;SDS011;38819;42.692;23.342;2023-08-06T07:58:22;3.72;;;1.98;;
52956;SDS011;38819;42.692;23.342;2023-08-06T08:00:49;3.45;;;2.65;;
52956;SDS011;38819;42.692;23.342;2023-08-06T08:03:15;2.33;;;1.77;;
52956;SDS011;38819;42.692;23.342;2023-08-06T08:05:42;3.73;;;1.90;;
52956;SDS011;38819;42.692;23.342;2023-08-06T08:08:08;2.60;;;1.65;;
52956;SDS011;38819;42.692;23.342;2023-08-06T08:10:34;3.65;;;1.83;;
52956;SDS011;38819;42.692;23.342;2023-08-06T08:13:03;4.65;;;2.13;;
52956;SDS011;38819;42.692;23.342;2023-08-06T08:15:29;2.40;;;2.20;;
52956;SDS011;38819;42.692;23.342;2023-08-06T08:17:55;3.17;;;2.20;;
52956;SDS011;38819;42.692;23.342;2023-08-06T08:20:21;2.30;;;2.10;;
52956;SDS011;38819;42.692;23.342;2023-08-06T08:22:47;3.20;;;1.95;;
52956;SDS011;38819;42.692;23.342;2023-08-06T08:25:12;6.20;;;2.13;;
52956;SDS011;38819;42.692;23.342;2023-08-06T08:27:38;5.82;;;2.40;;
52956;SDS011;38819;42.692;23.342;2023-08-06T08:30:03;2.90;;;1.95;;
52956;SDS011;38819;42.692;23.342;2023-08-06T08:32:29;5.18;;;2.05;;
52956;SDS011;38819;42.692;23.342;2023-08-06T08:34:55;3.08;;;2.10;;
52956;SDS011;38819;42.692;23.342;2023-08-06T08:37:20;2.25;;;2.03;;
52956;SDS011;38819;42.692;23.342;2023-08-06T08:39:46;5.13;;;2.50;;
52956;SDS011;38819;42.692;23.342;2023-08-06T08:42:11;2.65;;;2.13;;
52956;SDS011;38819;42.692;23.342;2023-08-06T08:44:37;2.90;;;2.55;;
52956;SDS011;38819;42.692;23.342;2023-08-06T08:47:07;2.30;;;2.20;;
52956;SDS011;38819;42.692;23.342;2023-08-06T08:49:36;3.60;;;2.10;;
52956;SDS011;38819;42.692;23.342;2023-08-06T08:52:03;7.00;;;1.90;;
52956;SDS011;38819;42.692;23.342;2023-08-06T08:54:33;2.92;;;1.95;;
52956;SDS011;38819;42.692;23.342;2023-08-06T08:59:25;3.97;;;2.70;;
52956;SDS011;38819;42.692;23.342;2023-08-06T09:01:51;2.67;;;2.25;;
52956;SDS011;38819;42.692;23.342;2023-08-06T09:04:18;5.25;;;2.03;;
52956;SDS011;38819;42.692;23.342;2023-08-06T09:06:51;3.30;;;1.88;;
52956;SDS011;38819;42.692;23.342;2023-08-06T09:09:22;3.13;;;2.05;;
52956;SDS011;38819;42.692;23.342;2023-08-06T09:11:51;3.30;;;2.30;;
52956;SDS011;38819;42.692;23.342;2023-08-06T09:16:44;3.20;;;2.53;;
52956;SDS011;38819;42.692;23.342;2023-08-06T09:19:10;2.53;;;2.15;;
52956;SDS011;38819;42.692;23.342;2023-08-06T09:21:37;5.78;;;2.60;;
52956;SDS011;38819;42.692;23.342;2023-08-06T09:24:07;3.97;;;2.20;;
52956;SDS011;38819;42.692;23.342;2023-08-06T09:26:42;4.93;;;2.20;;
52956;SDS011;38819;42.692;23.342;2023-08-06T09:29:09;4.60;;;2.22;;
52956;SDS011;38819;42.692;23.342;2023-08-06T09:31:44;4.82;;;2.22;;
52956;SDS011;38819;42.692;23.342;2023-08-06T09:34:13;3.53;;;2.20;;
52956;SDS011;38819;42.692;23.342;2023-08-06T09:36:53;2.92;;;2.40;;
52956;SDS011;38819;42.692;23.342;2023-08-06T09:39:20;6.20;;;2.00;;
52956;SDS011;38819;42.692;23.342;2023-08-06T09:41:47;2.75;;;2.10;;
52956;SDS011;38819;42.692;23.342;2023-08-06T09:44:17;2.00;;;1.90;;
52956;SDS011;38819;42.692;23.342;2023-08-06T09:46:51;3.67;;;2.25;;
52956;SDS011;38819;42.692;23.342;2023-08-06T09:49:18;2.60;;;2.08;;
52956;SDS011;38819;42.692;23.342;2023-08-06T09:51:46;3.45;;;2.13;;
52956;SDS011;38819;42.692;23.342;2023-08-06T09:54:15;2.90;;;1.88;;
52956;SDS011;38819;42.692;23.342;2023-08-06T09:56:42;2.03;;;1.83;;
52956;SDS011;38819;42.692;23.342;2023-08-06T09:59:08;3.20;;;2.47;;
52956;SDS011;38819;42.692;23.342;2023-08-06T10:01:34;2.03;;;1.83;;
52956;SDS011;38819;42.692;23.342;2023-08-06T10:04:04;2.50;;;1.77;;
52956;SDS011;38819;42.692;23.342;2023-08-06T10:06:35;2.03;;;1.80;;
52956;SDS011;38819;42.692;23.342;2023-08-06T10:09:01;2.30;;;2.10;;
52956;SDS011;38819;42.692;23.342;2023-08-06T10:11:27;1.57;;;1.47;;
52956;SDS011;38819;42.692;23.342;2023-08-06T10:13:55;3.22;;;1.80;;
52956;SDS011;38819;42.692;23.342;2023-08-06T10:16:25;1.63;;;1.52;;
52956;SDS011;38819;42.692;23.342;2023-08-06T10:18:52;2.17;;;1.57;;
52956;SDS011;38819;42.692;23.342;2023-08-06T10:21:18;2.10;;;1.60;;
52956;SDS011;38819;42.692;23.342;2023-08-06T10:23:48;2.83;;;1.60;;
52956;SDS011;38819;42.692;23.342;2023-08-06T10:26:19;2.17;;;1.70;;
52956;SDS011;38819;42.692;23.342;2023-08-06T10:28:44;3.13;;;1.90;;
52956;SDS011;38819;42.692;23.342;2023-08-06T10:31:10;4.97;;;1.80;;
52956;SDS011;38819;42.692;23.342;2023-08-06T10:33:45;2.47;;;1.98;;
52956;SDS011;38819;42.692;23.342;2023-08-06T10:36:12;1.83;;;1.65;;
52956;SDS011;38819;42.692;23.342;2023-08-06T10:38:48;3.03;;;1.75;;
52956;SDS011;38819;42.692;23.342;2023-08-06T10:41:15;4.68;;;2.03;;
52956;SDS011;38819;42.692;23.342;2023-08-06T10:43:42;1.88;;;1.77;;
52956;SDS011;38819;42.692;23.342;2023-08-06T10:46:10;2.88;;;1.85;;
52956;SDS011;38819;42.692;23.342;2023-08-06T10:48:41;4.85;;;2.22;;
52956;SDS011;38819;42.692;23.342;2023-08-06T10:51:07;2.95;;;2.05;;
52956;SDS011;38819;42.692;23.342;2023-08-06T10:53:34;4.38;;;2.15;;
52956;SDS011;38819;42.692;23.342;2023-08-06T10:56:00;3.35;;;1.90;;
52956;SDS011;38819;42.692;23.342;2023-08-06T10:58:31;2.53;;;2.33;;
52956;SDS011;38819;42.692;23.342;2023-08-06T11:00:57;3.53;;;1.85;;
52956;SDS011;38819;42.692;23.342;2023-08-06T11:03:24;2.92;;;2.22;;
52956;SDS011;38819;42.692;23.342;2023-08-06T11:05:49;2.88;;;2.20;;
52956;SDS011;38819;42.692;23.342;2023-08-06T11:08:28;5.00;;;2.13;;
52956;SDS011;38819;42.692;23.342;2023-08-06T11:11:08;3.17;;;2.22;;
52956;SDS011;38819;42.692;23.342;2023-08-06T11:13:45;4.05;;;2.10;;
52956;SDS011;38819;42.692;23.342;2023-08-06T11:16:18;4.30;;;2.20;;
52956;SDS011;38819;42.692;23.342;2023-08-06T11:18:45;3.05;;;2.70;;
52956;SDS011;38819;42.692;23.342;2023-08-06T11:21:12;2.72;;;2.53;;
52956;SDS011;38819;42.692;23.342;2023-08-06T11:23:38;4.07;;;2.95;;
52956;SDS011;38819;42.692;23.342;2023-08-06T11:26:04;2.85;;;2.65;;
52956;SDS011;38819;42.692;23.342;2023-08-06T11:28:30;3.47;;;2.80;;
52956;SDS011;38819;42.692;23.342;2023-08-06T11:30:55;5.40;;;2.75;;
52956;SDS011;38819;42.692;23.342;2023-08-06T11:33:23;3.30;;;2.75;;
52956;SDS011;38819;42.692;23.342;2023-08-06T11:35:50;2.60;;;2.40;;
52956;SDS011;38819;42.692;23.342;2023-08-06T11:38:16;2.95;;;2.63;;
52956;SDS011;38819;42.692;23.342;2023-08-06T11:40:47;4.03;;;2.47;;
52956;SDS011;38819;42.692;23.342;2023-08-06T11:43:13;3.25;;;2.85;;
52956;SDS011;38819;42.692;23.342;2023-08-06T11:45:39;3.00;;;2.70;;
52956;SDS011;38819;42.692;23.342;2023-08-06T11:48:05;3.03;;;2.67;;
52956;SDS011;38819;42.692;23.342;2023-08-06T11:50:35;3.92;;;2.42;;
52956;SDS011;38819;42.692;23.342;2023-08-06T11:53:03;6.32;;;2.70;;
52956;SDS011;38819;42.692;23.342;2023-08-06T11:55:28;3.03;;;2.60;;
52956;SDS011;38819;42.692;23.342;2023-08-06T11:57:54;5.57;;;2.92;;
52956;SDS011;38819;42.692;23.342;2023-08-06T12:00:22;3.13;;;2.80;;
52956;SDS011;38819;42.692;23.342;2023-08-06T12:02:49;3.35;;;2.42;;
52956;SDS011;38819;42.692;23.342;2023-08-06T12:05:16;3.35;;;2.80;;
52956;SDS011;38819;42.692;23.342;2023-08-06T12:07:55;3.28;;;3.08;;
52956;SDS011;38819;42.692;23.342;2023-08-06T12:10:22;5.83;;;2.47;;
52956;SDS011;38819;42.692;23.342;2023-08-06T12:12:49;3.80;;;3.30;;
52956;SDS011;38819;42.692;23.342;2023-08-06T12:15:15;3.25;;;2.97;;
52956;SDS011;38819;42.692;23.342;2023-08-06T12:17:41;3.50;;;3.20;;
52956;SDS011;38819;42.692;23.342;2023-08-06T12:20:07;4.22;;;2.97;;
52956;SDS011;38819;42.692;23.342;2023-08-06T12:22:33;3.75;;;3.45;;
52956;SDS011;38819;42.692;23.342;2023-08-06T12:25:03;7.45;;;3.97;;
52956;SDS011;38819;42.692;23.342;2023-08-06T12:27:35;4.03;;;3.22;;
52956;SDS011;38819;42.692;23.342;2023-08-06T12:30:01;5.85;;;3.75;;
52956;SDS011;38819;42.692;23.342;2023-08-06T12:32:28;4.05;;;3.65;;
52956;SDS011;38819;42.692;23.342;2023-08-06T12:34:54;4.50;;;3.70;;
52956;SDS011;38819;42.692;23.342;2023-08-06T12:37:19;4.28;;;3.78;;
52956;SDS011;38819;42.692;23.342;2023-08-06T12:39:45;6.35;;;3.28;;
52956;SDS011;38819;42.692;23.342;2023-08-06T12:42:10;5.95;;;3.35;;
52956;SDS011;38819;42.692;23.342;2023-08-06T12:44:36;5.28;;;3.35;;
52956;SDS011;38819;42.692;23.342;2023-08-06T12:47:01;5.72;;;3.40;;
52956;SDS011;38819;42.692;23.342;2023-08-06T12:49:27;4.75;;;3.58;;
52956;SDS011;38819;42.692;23.342;2023-08-06T12:51:53;5.23;;;3.30;;
52956;SDS011;38819;42.692;23.342;2023-08-06T12:54:19;5.35;;;3.55;;
52956;SDS011;38819;42.692;23.342;2023-08-06T12:56:46;7.23;;;3.33;;
52956;SDS011;38819;42.692;23.342;2023-08-06T12:59:15;3.80;;;3.50;;
52956;SDS011;38819;42.692;23.342;2023-08-06T13:01:42;4.05;;;3.75;;
52956;SDS011;38819;42.692;23.342;2023-08-06T13:04:08;6.97;;;3.83;;
52956;SDS011;38819;42.692;23.342;2023-08-06T13:06:33;5.55;;;3.42;;
52956;SDS011;38819;42.692;23.342;2023-08-06T13:09:11;6.57;;;3.80;;
52956;SDS011;38819;42.692;23.342;2023-08-06T13:11:37;6.95;;;3.08;;
52956;SDS011;38819;42.692;23.342;2023-08-06T13:14:05;5.93;;;3.72;;
52956;SDS011;38819;42.692;23.342;2023-08-06T13:16:32;3.30;;;2.90;;
52956;SDS011;38819;42.692;23.342;2023-08-06T13:18:58;4.35;;;3.13;;
52956;SDS011;38819;42.692;23.342;2023-08-06T13:21:24;5.63;;;2.75;;
52956;SDS011;38819;42.692;23.342;2023-08-06T13:23:56;5.95;;;3.88;;
52956;SDS011;38819;42.692;23.342;2023-08-06T13:26:21;5.85;;;3.58;;
52956;SDS011;38819;42.692;23.342;2023-08-06T13:28:47;6.07;;;3.22;;
52956;SDS011;38819;42.692;23.342;2023-08-06T13:31:14;5.97;;;3.47;;
52956;SDS011;38819;42.692;23.342;2023-08-06T13:33:39;3.55;;;3.22;;
52956;SDS011;38819;42.692;23.342;2023-08-06T13:36:05;3.83;;;2.83;;
52956;SDS011;38819;42.692;23.342;2023-08-06T13:38:30;3.17;;;2.90;;
52956;SDS011;38819;42.692;23.342;2023-08-06T13:40:56;3.28;;;2.78;;
52956;SDS011;38819;42.692;23.342;2023-08-06T13:43:21;3.58;;;3.28;;
52956;SDS011;38819;42.692;23.342;2023-08-06T13:45:46;3.85;;;3.17;;
52956;SDS011;38819;42.692;23.342;2023-08-06T13:48:12;3.30;;;3.00;;
52956;SDS011;38819;42.692;23.342;2023-08-06T13:50:37;5.53;;;3.60;;
52956;SDS011;38819;42.692;23.342;2023-08-06T13:53:03;5.68;;;3.10;;
52956;SDS011;38819;42.692;23.342;2023-08-06T13:55:28;7.43;;;3.38;;
52956;SDS011;38819;42.692;23.342;2023-08-06T13:57:55;3.85;;;3.05;;
52956;SDS011;38819;42.692;23.342;2023-08-06T14:00:21;4.78;;;3.95;;
52956;SDS011;38819;42.692;23.342;2023-08-06T14:02:46;4.80;;;3.78;;
52956;SDS011;38819;42.692;23.342;2023-08-06T14:05:11;4.88;;;3.28;;
52956;SDS011;38819;42.692;23.342;2023-08-06T14:07:37;4.70;;;3.03;;
52956;SDS011;38819;42.692;23.342;2023-08-06T14:10:03;5.07;;;3.38;;
52956;SDS011;38819;42.692;23.342;2023-08-06T14:12:30;4.40;;;2.83;;
52956;SDS011;38819;42.692;23.342;2023-08-06T14:14:56;3.65;;;2.88;;
52956;SDS011;38819;42.692;23.342;2023-08-06T14:17:22;3.65;;;2.95;;
52956;SDS011;38819;42.692;23.342;2023-08-06T14:19:47;3.95;;;3.35;;
52956;SDS011;38819;42.692;23.342;2023-08-06T14:22:12;5.43;;;2.65;;
52956;SDS011;38819;42.692;23.342;2023-08-06T14:24:38;4.95;;;2.63;;
52956;SDS011;38819;42.692;23.342;2023-08-06T14:27:03;4.25;;;2.97;;
52956;SDS011;38819;42.692;23.342;2023-08-06T14:29:31;3.63;;;2.88;;
52956;SDS011;38819;42.692;23.342;2023-08-06T14:31:56;4.18;;;3.03;;
52956;SDS011;38819;42.692;23.342;2023-08-06T14:34:22;5.07;;;2.80;;
52956;SDS011;38819;42.692;23.342;2023-08-06T14:36:47;4.38;;;2.95;;
52956;SDS011;38819;42.692;23.342;2023-08-06T14:39:13;4.93;;;2.60;;
52956;SDS011;38819;42.692;23.342;2023-08-06T14:41:38;5.38;;;2.55;;
52956;SDS011;38819;42.692;23.342;2023-08-06T14:44:04;4.90;;;2.63;;
52956;SDS011;38819;42.692;23.342;2023-08-06T14:46:29;3.25;;;2.53;;